Folla — LLPD — position and weather

sailwx.info

Track history (hours):
 
Tides and Currents Weather Stations Pressure Air Temp Water Temp Dewpoint Dewpoint Depression Visibility Wind Speed Wind Dir Waves Ship Positions

Folla

Last reported at 2015-Apr-18 00:12 UTC. Time now 2015-Apr-18 07:19 UTC.
Position N 68°13' E 014°34'.

Length 52 m; draft 5 m.

Type: Cargo ship. MMSI: 258253000.

Date/timePositionNaut miles runAvg speedWind from/ knotsBaromVisibWave heightAir tempDewpointWater temp
2015-Apr-18 00:12N 68°13' E 014°34'0 0.2
2015-Apr-17 23:27N 68°13' E 014°34'1110.7
2015-Apr-17 22:26N 68°07' E 014°09'1010.7
2015-Apr-17 21:30N 68°04' E 013°44'98 8.1
2015-Apr-17 09:31N 66°29' E 012°45'6 5.2
2015-Apr-17 08:22N 66°24' E 012°50'70 7.7
2015-Apr-16 23:14N 65°17' E 011°58'811.0
2015-Apr-16 22:29N 65°09' E 011°50'1010.6
2015-Apr-16 21:33N 65°01' E 011°39'1111.0
2015-Apr-16 20:33N 64°53' E 011°19'8 8.5
2015-Apr-16 19:33N 64°47' E 011°06'11 9.9
2015-Apr-16 18:28N 64°37' E 011°15'1 0.0
2015-Apr-15 12:16N 64°38' E 011°12'810.4
2015-Apr-15 11:27N 64°45' E 011°06'7 8.0
2015-Apr-15 10:33N 64°52' E 011°15'0 0.1
2015-Apr-15 09:33N 64°52' E 011°14'1 1.2
2015-Apr-15 08:33N 64°52' E 011°17'0 0.0
2015-Apr-15 07:33N 64°52' E 011°17'0 0.0
2015-Apr-15 06:33N 64°52' E 011°17'0 0.0
2015-Apr-15 05:33N 64°52' E 011°17'0 0.0
2015-Apr-15 04:33N 64°52' E 011°17'0 0.0
2015-Apr-15 03:33N 64°52' E 011°17'0 0.0
2015-Apr-15 02:33N 64°52' E 011°17'0 0.0
2015-Apr-15 01:33N 64°52' E 011°17'0 0.0
2015-Apr-15 00:33N 64°52' E 011°17'0 0.0
2015-Apr-14 23:34N 64°52' E 011°17'0 0.0
2015-Apr-14 22:33N 64°52' E 011°17'0 0.0
2015-Apr-14 21:33N 64°52' E 011°17'0 0.0
2015-Apr-14 20:33N 64°52' E 011°17'0 0.0
2015-Apr-14 19:34N 64°52' E 011°17'0 0.0
2015-Apr-14 18:33N 64°52' E 011°17'0 0.0
2015-Apr-14 17:33N 64°52' E 011°17'0 0.0
2015-Apr-14 16:33N 64°52' E 011°17'0 0.0
2015-Apr-14 15:33N 64°52' E 011°17'0 0.0
2015-Apr-14 14:34N 64°52' E 011°17'0 0.0
2015-Apr-14 13:34N 64°52' E 011°17'0 0.0
2015-Apr-14 12:33N 64°52' E 011°17'0 0.0
2015-Apr-14 11:33N 64°52' E 011°17'0 0.0
2015-Apr-14 10:33N 64°52' E 011°17'0 0.0
2015-Apr-14 09:33N 64°52' E 011°17'0 0.0
2015-Apr-14 08:33N 64°52' E 011°17'0 0.0
2015-Apr-14 07:33N 64°52' E 011°17'0 0.0
2015-Apr-14 06:33N 64°52' E 011°17'0 0.0
2015-Apr-14 05:33N 64°52' E 011°17'0 0.0
2015-Apr-14 04:34N 64°52' E 011°17'0 0.0
2015-Apr-14 03:33N 64°52' E 011°17'0 0.0
2015-Apr-14 02:33N 64°52' E 011°17'0 0.0
2015-Apr-14 01:33N 64°52' E 011°17'0 0.0
2015-Apr-14 00:33N 64°52' E 011°17'0 0.0
2015-Apr-13 23:33N 64°52' E 011°17'0 0.0
2015-Apr-13 22:33N 64°52' E 011°17'0 0.0
2015-Apr-13 21:33N 64°52' E 011°17'0 0.0
2015-Apr-13 20:33N 64°52' E 011°17'0 0.0
2015-Apr-13 19:33N 64°52' E 011°17'0 0.0
2015-Apr-13 18:34N 64°52' E 011°17'0 0.0
2015-Apr-13 17:33N 64°52' E 011°17'0 0.0
2015-Apr-13 16:33N 64°52' E 011°17'0 0.0
2015-Apr-13 15:33N 64°52' E 011°17'0 0.0
2015-Apr-13 14:33N 64°52' E 011°17'0 0.0
2015-Apr-13 13:33N 64°52' E 011°17'0 0.0
2015-Apr-13 12:33N 64°52' E 011°17'9 8.8
2015-Apr-13 11:33N 64°58' E 011°32'6 5.4
2015-Apr-13 10:27N 65°01' E 011°44'74 9.0
2015-Apr-13 02:15N 66°13' E 012°28'12 5.9
2015-Apr-13 00:12N 66°17' E 012°56'1011.3
2015-Apr-12 23:18N 66°27' E 012°59'910.2
2015-Apr-12 22:23N 66°36' E 013°04'27 6.8
2015-Apr-12 18:28N 66°60' E 013°37'1110.9
2015-Apr-12 17:29N 67°06' E 013°58'1010.9
2015-Apr-12 16:33N 67°14' E 014°14'5 5.1
2015-Apr-12 15:34N 67°18' E 014°23'1111.0
2015-Apr-12 14:33N 67°29' E 014°28'1311.0
2015-Apr-12 13:23N 67°42' E 014°31'150 6.6
2015-Apr-11 14:33N 69°37' E 018°54'4 4.1
2015-Apr-11 13:33N 69°41' E 018°59'5 5.4
2015-Apr-11 12:33N 69°36' E 018°52'124 6.7
2015-Apr-10 18:08N 68°13' E 014°34'0 0.3
2015-Apr-10 17:25N 68°13' E 014°34'2111.2
2015-Apr-10 15:33N 68°04' E 013°43'35 6.4
2015-Apr-10 10:05N 67°29' E 013°36'610.5
2015-Apr-10 09:33N 67°24' E 013°30'5610.4
2015-Apr-10 04:11N 66°32' E 012°45'811.8
2015-Apr-10 03:31N 66°24' E 012°47'7 6.6
2015-Apr-10 02:32N 66°18' E 012°40'68 9.7
2015-Apr-09 19:30N 65°13' E 011°53'1111.8
2015-Apr-09 18:33N 65°02' E 011°43'1211.6
2015-Apr-09 17:33N 64°55' E 011°22'7 7.2
2015-Apr-09 16:33N 64°50' E 011°10'12 9.2
2015-Apr-09 15:12N 64°37' E 011°14'3 0.1
2015-Apr-08 14:18N 64°35' E 011°21'810.3
2015-Apr-08 13:33N 64°43' E 011°24'  
Track history (hours):
 
Tides and Currents Weather Stations Pressure Air Temp Water Temp Dewpoint Dewpoint Depression Visibility Wind Speed Wind Dir Waves Ship Positions

Folla

Last reported at 2015-Apr-18 00:12 UTC. Time now 2015-Apr-18 07:19 UTC.
Position N 68°13' E 014°34'.

Length 52 m; draft 5 m.

Type: Cargo ship. MMSI: 258253000.

Date/timePositionNaut miles runAvg speedWind from/ knotsBaromVisibWave heightAir tempDewpointWater temp
2015-Apr-18 00:12N 68°13' E 014°34'0 0.2
2015-Apr-17 23:27N 68°13' E 014°34'1110.7
2015-Apr-17 22:26N 68°07' E 014°09'1010.7
2015-Apr-17 21:30N 68°04' E 013°44'98 8.1
2015-Apr-17 09:31N 66°29' E 012°45'6 5.2
2015-Apr-17 08:22N 66°24' E 012°50'70 7.7
2015-Apr-16 23:14N 65°17' E 011°58'811.0
2015-Apr-16 22:29N 65°09' E 011°50'1010.6
2015-Apr-16 21:33N 65°01' E 011°39'1111.0
2015-Apr-16 20:33N 64°53' E 011°19'8 8.5
2015-Apr-16 19:33N 64°47' E 011°06'11 9.9
2015-Apr-16 18:28N 64°37' E 011°15'1 0.0
2015-Apr-15 12:16N 64°38' E 011°12'810.4
2015-Apr-15 11:27N 64°45' E 011°06'7 8.0
2015-Apr-15 10:33N 64°52' E 011°15'0 0.1
2015-Apr-15 09:33N 64°52' E 011°14'1 1.2
2015-Apr-15 08:33N 64°52' E 011°17'0 0.0
2015-Apr-15 07:33N 64°52' E 011°17'0 0.0
2015-Apr-15 06:33N 64°52' E 011°17'0 0.0
2015-Apr-15 05:33N 64°52' E 011°17'0 0.0
2015-Apr-15 04:33N 64°52' E 011°17'0 0.0
2015-Apr-15 03:33N 64°52' E 011°17'0 0.0
2015-Apr-15 02:33N 64°52' E 011°17'0 0.0
2015-Apr-15 01:33N 64°52' E 011°17'0 0.0
2015-Apr-15 00:33N 64°52' E 011°17'0 0.0
2015-Apr-14 23:34N 64°52' E 011°17'0 0.0
2015-Apr-14 22:33N 64°52' E 011°17'0 0.0
2015-Apr-14 21:33N 64°52' E 011°17'0 0.0
2015-Apr-14 20:33N 64°52' E 011°17'0 0.0
2015-Apr-14 19:34N 64°52' E 011°17'0 0.0
2015-Apr-14 18:33N 64°52' E 011°17'0 0.0
2015-Apr-14 17:33N 64°52' E 011°17'0 0.0
2015-Apr-14 16:33N 64°52' E 011°17'0 0.0
2015-Apr-14 15:33N 64°52' E 011°17'0 0.0
2015-Apr-14 14:34N 64°52' E 011°17'0 0.0
2015-Apr-14 13:34N 64°52' E 011°17'0 0.0
2015-Apr-14 12:33N 64°52' E 011°17'0 0.0
2015-Apr-14 11:33N 64°52' E 011°17'0 0.0
2015-Apr-14 10:33N 64°52' E 011°17'0 0.0
2015-Apr-14 09:33N 64°52' E 011°17'0 0.0
2015-Apr-14 08:33N 64°52' E 011°17'0 0.0
2015-Apr-14 07:33N 64°52' E 011°17'0 0.0
2015-Apr-14 06:33N 64°52' E 011°17'0 0.0
2015-Apr-14 05:33N 64°52' E 011°17'0 0.0
2015-Apr-14 04:34N 64°52' E 011°17'0 0.0
2015-Apr-14 03:33N 64°52' E 011°17'0 0.0
2015-Apr-14 02:33N 64°52' E 011°17'0 0.0
2015-Apr-14 01:33N 64°52' E 011°17'0 0.0
2015-Apr-14 00:33N 64°52' E 011°17'0 0.0
2015-Apr-13 23:33N 64°52' E 011°17'0 0.0
2015-Apr-13 22:33N 64°52' E 011°17'0 0.0
2015-Apr-13 21:33N 64°52' E 011°17'0 0.0
2015-Apr-13 20:33N 64°52' E 011°17'0 0.0
2015-Apr-13 19:33N 64°52' E 011°17'0 0.0
2015-Apr-13 18:34N 64°52' E 011°17'0 0.0
2015-Apr-13 17:33N 64°52' E 011°17'0 0.0
2015-Apr-13 16:33N 64°52' E 011°17'0 0.0
2015-Apr-13 15:33N 64°52' E 011°17'0 0.0
2015-Apr-13 14:33N 64°52' E 011°17'0 0.0
2015-Apr-13 13:33N 64°52' E 011°17'0 0.0
2015-Apr-13 12:33N 64°52' E 011°17'9 8.8
2015-Apr-13 11:33N 64°58' E 011°32'6 5.4
2015-Apr-13 10:27N 65°01' E 011°44'74 9.0
2015-Apr-13 02:15N 66°13' E 012°28'12 5.9
2015-Apr-13 00:12N 66°17' E 012°56'1011.3
2015-Apr-12 23:18N 66°27' E 012°59'910.2
2015-Apr-12 22:23N 66°36' E 013°04'27 6.8
2015-Apr-12 18:28N 66°60' E 013°37'1110.9
2015-Apr-12 17:29N 67°06' E 013°58'1010.9
2015-Apr-12 16:33N 67°14' E 014°14'5 5.1
2015-Apr-12 15:34N 67°18' E 014°23'1111.0
2015-Apr-12 14:33N 67°29' E 014°28'1311.0
2015-Apr-12 13:23N 67°42' E 014°31'150 6.6
2015-Apr-11 14:33N 69°37' E 018°54'4 4.1
2015-Apr-11 13:33N 69°41' E 018°59'5 5.4
2015-Apr-11 12:33N 69°36' E 018°52'124 6.7
2015-Apr-10 18:08N 68°13' E 014°34'0 0.3
2015-Apr-10 17:25N 68°13' E 014°34'2111.2
2015-Apr-10 15:33N 68°04' E 013°43'35 6.4
2015-Apr-10 10:05N 67°29' E 013°36'610.5
2015-Apr-10 09:33N 67°24' E 013°30'5610.4
2015-Apr-10 04:11N 66°32' E 012°45'811.8
2015-Apr-10 03:31N 66°24' E 012°47'7 6.6
2015-Apr-10 02:32N 66°18' E 012°40'68 9.7
2015-Apr-09 19:30N 65°13' E 011°53'1111.8
2015-Apr-09 18:33N 65°02' E 011°43'1211.6
2015-Apr-09 17:33N 64°55' E 011°22'7 7.2
2015-Apr-09 16:33N 64°50' E 011°10'12 9.2
2015-Apr-09 15:12N 64°37' E 011°14'3 0.1
2015-Apr-08 14:18N 64°35' E 011°21'810.3
2015-Apr-08 13:33N 64°43' E 011°24'  

Dump ship's entire track history